sensor_id;sensor_type;location;lat;lon;timestamp;P1;durP1;ratioP1;P2;durP2;ratioP2
67762;SDS011;54566;52.022;5.582;2023-04-24T17:25:59;14.38;;;3.67;;
67762;SDS011;54566;52.022;5.582;2023-04-24T17:28:26;16.88;;;3.60;;
67762;SDS011;54566;52.022;5.582;2023-04-24T17:30:53;10.80;;;3.13;;
67762;SDS011;54566;52.022;5.582;2023-04-24T17:33:22;15.90;;;2.85;;
67762;SDS011;54566;52.022;5.582;2023-04-24T17:35:51;16.02;;;3.90;;
67762;SDS011;54566;52.022;5.582;2023-04-24T17:38:17;15.80;;;3.08;;
67762;SDS011;54566;52.022;5.582;2023-04-24T17:40:43;13.25;;;2.95;;
67762;SDS011;54566;52.022;5.582;2023-04-24T17:43:17;18.67;;;3.58;;
67762;SDS011;54566;52.022;5.582;2023-04-24T17:45:49;22.77;;;4.22;;
67762;SDS011;54566;52.022;5.582;2023-04-24T17:48:18;30.13;;;7.18;;
67762;SDS011;54566;52.022;5.582;2023-04-24T17:50:49;25.77;;;5.53;;
67762;SDS011;54566;52.022;5.582;2023-04-24T17:56:04;17.80;;;4.45;;
67762;SDS011;54566;52.022;5.582;2023-04-24T17:58:57;22.38;;;4.72;;
67762;SDS011;54566;52.022;5.582;2023-04-24T18:02:00;13.65;;;3.60;;
67762;SDS011;54566;52.022;5.582;2023-04-24T18:07:36;16.08;;;3.28;;
67762;SDS011;54566;52.022;5.582;2023-04-24T18:10:05;15.93;;;3.38;;
67762;SDS011;54566;52.022;5.582;2023-04-24T18:12:57;22.10;;;4.50;;
67762;SDS011;54566;52.022;5.582;2023-04-24T18:15:30;19.17;;;3.90;;
67762;SDS011;54566;52.022;5.582;2023-04-24T18:17:56;18.70;;;4.38;;
67762;SDS011;54566;52.022;5.582;2023-04-24T18:20:37;18.60;;;4.93;;
67762;SDS011;54566;52.022;5.582;2023-04-24T18:23:22;22.92;;;4.38;;
67762;SDS011;54566;52.022;5.582;2023-04-24T18:25:53;18.38;;;3.72;;
67762;SDS011;54566;52.022;5.582;2023-04-24T18:28:19;22.55;;;4.32;;
67762;SDS011;54566;52.022;5.582;2023-04-24T18:30:47;18.33;;;3.50;;
67762;SDS011;54566;52.022;5.582;2023-04-24T18:33:14;22.65;;;4.43;;
67762;SDS011;54566;52.022;5.582;2023-04-24T18:35:40;16.50;;;3.65;;
67762;SDS011;54566;52.022;5.582;2023-04-24T18:38:06;9.63;;;3.05;;
67762;SDS011;54566;52.022;5.582;2023-04-24T18:40:35;25.98;;;4.70;;
67762;SDS011;54566;52.022;5.582;2023-04-24T18:43:04;20.60;;;3.78;;
67762;SDS011;54566;52.022;5.582;2023-04-24T18:45:44;15.15;;;3.25;;
67762;SDS011;54566;52.022;5.582;2023-04-24T18:48:23;25.60;;;3.70;;
67762;SDS011;54566;52.022;5.582;2023-04-24T18:50:52;21.58;;;3.92;;
67762;SDS011;54566;52.022;5.582;2023-04-24T18:53:18;21.30;;;4.15;;
67762;SDS011;54566;52.022;5.582;2023-04-24T18:55:46;14.27;;;3.35;;
67762;SDS011;54566;52.022;5.582;2023-04-24T18:58:12;16.60;;;3.28;;
67762;SDS011;54566;52.022;5.582;2023-04-24T19:00:41;15.30;;;3.20;;
67762;SDS011;54566;52.022;5.582;2023-04-24T19:03:17;15.80;;;3.55;;
67762;SDS011;54566;52.022;5.582;2023-04-24T19:05:44;24.65;;;3.80;;
67762;SDS011;54566;52.022;5.582;2023-04-24T19:08:10;15.85;;;3.80;;
67762;SDS011;54566;52.022;5.582;2023-04-24T19:10:57;13.45;;;3.22;;
67762;SDS011;54566;52.022;5.582;2023-04-24T19:13:28;18.00;;;3.67;;
67762;SDS011;54566;52.022;5.582;2023-04-24T19:16:00;18.92;;;2.97;;
67762;SDS011;54566;52.022;5.582;2023-04-24T19:18:26;20.30;;;3.70;;
67762;SDS011;54566;52.022;5.582;2023-04-24T19:20:53;16.65;;;4.03;;
67762;SDS011;54566;52.022;5.582;2023-04-24T19:23:23;19.95;;;3.83;;
67762;SDS011;54566;52.022;5.582;2023-04-24T19:25:52;20.65;;;3.17;;
67762;SDS011;54566;52.022;5.582;2023-04-24T19:28:22;21.83;;;5.28;;
67762;SDS011;54566;52.022;5.582;2023-04-24T19:30:51;21.92;;;3.60;;
67762;SDS011;54566;52.022;5.582;2023-04-24T19:33:27;21.33;;;3.85;;
67762;SDS011;54566;52.022;5.582;2023-04-24T19:36:14;17.98;;;3.13;;
67762;SDS011;54566;52.022;5.582;2023-04-24T19:38:45;20.75;;;3.65;;
67762;SDS011;54566;52.022;5.582;2023-04-24T19:41:18;12.23;;;2.92;;
67762;SDS011;54566;52.022;5.582;2023-04-24T19:44:11;12.63;;;2.85;;
67762;SDS011;54566;52.022;5.582;2023-04-24T19:46:53;17.67;;;2.97;;
67762;SDS011;54566;52.022;5.582;2023-04-24T19:49:22;15.85;;;2.60;;
67762;SDS011;54566;52.022;5.582;2023-04-24T19:51:48;11.52;;;2.75;;
67762;SDS011;54566;52.022;5.582;2023-04-24T19:54:14;12.02;;;2.38;;
67762;SDS011;54566;52.022;5.582;2023-04-24T19:56:40;19.25;;;3.17;;
67762;SDS011;54566;52.022;5.582;2023-04-24T19:59:06;15.63;;;2.42;;
67762;SDS011;54566;52.022;5.582;2023-04-24T20:01:34;16.42;;;2.90;;
67762;SDS011;54566;52.022;5.582;2023-04-24T20:04:23;15.37;;;2.93;;
67762;SDS011;54566;52.022;5.582;2023-04-24T20:09:30;15.73;;;2.50;;
67762;SDS011;54566;52.022;5.582;2023-04-24T20:14:28;7.68;;;2.47;;
67762;SDS011;54566;52.022;5.582;2023-04-24T20:17:01;9.70;;;2.08;;
67762;SDS011;54566;52.022;5.582;2023-04-24T20:19:44;8.15;;;2.10;;
67762;SDS011;54566;52.022;5.582;2023-04-24T20:22:12;12.50;;;2.15;;
67762;SDS011;54566;52.022;5.582;2023-04-24T20:24:41;8.75;;;1.80;;
67762;SDS011;54566;52.022;5.582;2023-04-24T20:27:10;9.70;;;2.00;;
67762;SDS011;54566;52.022;5.582;2023-04-24T20:29:38;6.97;;;1.40;;
67762;SDS011;54566;52.022;5.582;2023-04-24T20:32:09;7.85;;;1.30;;
67762;SDS011;54566;52.022;5.582;2023-04-24T20:34:38;6.00;;;1.60;;
67762;SDS011;54566;52.022;5.582;2023-04-24T20:37:04;6.30;;;1.20;;
67762;SDS011;54566;52.022;5.582;2023-04-24T20:39:30;6.57;;;1.70;;
67762;SDS011;54566;52.022;5.582;2023-04-24T20:41:56;6.85;;;1.70;;
67762;SDS011;54566;52.022;5.582;2023-04-24T20:44:25;7.32;;;1.20;;
67762;SDS011;54566;52.022;5.582;2023-04-24T20:46:54;5.75;;;1.48;;
67762;SDS011;54566;52.022;5.582;2023-04-24T20:49:20;4.32;;;1.23;;
67762;SDS011;54566;52.022;5.582;2023-04-24T20:51:48;6.38;;;1.17;;
67762;SDS011;54566;52.022;5.582;2023-04-24T20:54:14;10.23;;;2.13;;
67762;SDS011;54566;52.022;5.582;2023-04-24T20:56:42;5.28;;;2.17;;
67762;SDS011;54566;52.022;5.582;2023-04-24T20:59:08;5.70;;;2.88;;
67762;SDS011;54566;52.022;5.582;2023-04-24T21:01:37;10.25;;;3.00;;
67762;SDS011;54566;52.022;5.582;2023-04-24T21:04:06;13.15;;;4.03;;
67762;SDS011;54566;52.022;5.582;2023-04-24T21:06:33;13.45;;;4.35;;
67762;SDS011;54566;52.022;5.582;2023-04-24T21:08:59;8.30;;;2.40;;
67762;SDS011;54566;52.022;5.582;2023-04-24T21:11:28;15.18;;;5.07;;
67762;SDS011;54566;52.022;5.582;2023-04-24T21:13:54;7.53;;;2.65;;
67762;SDS011;54566;52.022;5.582;2023-04-24T21:16:20;8.10;;;2.08;;
67762;SDS011;54566;52.022;5.582;2023-04-24T21:18:46;8.00;;;2.70;;
67762;SDS011;54566;52.022;5.582;2023-04-24T21:21:12;26.92;;;9.23;;
67762;SDS011;54566;52.022;5.582;2023-04-24T21:23:42;3.67;;;1.70;;
67762;SDS011;54566;52.022;5.582;2023-04-24T21:26:10;5.82;;;1.73;;
67762;SDS011;54566;52.022;5.582;2023-04-24T21:28:39;5.88;;;1.60;;
67762;SDS011;54566;52.022;5.582;2023-04-24T21:33:32;7.25;;;1.90;;
67762;SDS011;54566;52.022;5.582;2023-04-24T21:35:58;9.07;;;2.17;;
67762;SDS011;54566;52.022;5.582;2023-04-24T21:38:31;5.97;;;1.75;;
67762;SDS011;54566;52.022;5.582;2023-04-24T21:40:57;8.48;;;2.47;;
67762;SDS011;54566;52.022;5.582;2023-04-24T21:43:23;9.75;;;1.52;;
67762;SDS011;54566;52.022;5.582;2023-04-24T21:45:52;8.95;;;2.45;;
67762;SDS011;54566;52.022;5.582;2023-04-24T21:48:18;4.90;;;1.58;;
67762;SDS011;54566;52.022;5.582;2023-04-24T21:50:44;15.85;;;1.77;;
67762;SDS011;54566;52.022;5.582;2023-04-24T21:53:10;7.75;;;1.38;;
67762;SDS011;54566;52.022;5.582;2023-04-24T21:55:36;7.63;;;1.92;;
67762;SDS011;54566;52.022;5.582;2023-04-24T21:58:03;12.38;;;2.08;;
67762;SDS011;54566;52.022;5.582;2023-04-24T22:00:29;7.20;;;1.42;;
67762;SDS011;54566;52.022;5.582;2023-04-24T22:02:55;9.15;;;2.00;;
67762;SDS011;54566;52.022;5.582;2023-04-24T22:05:21;7.70;;;2.00;;
67762;SDS011;54566;52.022;5.582;2023-04-24T22:07:47;7.10;;;1.50;;
67762;SDS011;54566;52.022;5.582;2023-04-24T22:10:15;6.35;;;1.40;;
67762;SDS011;54566;52.022;5.582;2023-04-24T22:12:43;7.80;;;1.60;;
67762;SDS011;54566;52.022;5.582;2023-04-24T22:15:12;4.97;;;1.50;;
67762;SDS011;54566;52.022;5.582;2023-04-24T22:17:40;6.85;;;1.55;;
67762;SDS011;54566;52.022;5.582;2023-04-24T22:20:10;4.80;;;1.75;;
67762;SDS011;54566;52.022;5.582;2023-04-24T22:22:37;6.10;;;1.98;;
67762;SDS011;54566;52.022;5.582;2023-04-24T22:25:04;9.82;;;2.17;;
67762;SDS011;54566;52.022;5.582;2023-04-24T22:27:30;5.65;;;1.58;;
67762;SDS011;54566;52.022;5.582;2023-04-24T22:29:58;7.28;;;1.67;;
67762;SDS011;54566;52.022;5.582;2023-04-24T22:32:24;7.22;;;1.73;;
67762;SDS011;54566;52.022;5.582;2023-04-24T22:34:51;7.93;;;2.13;;
67762;SDS011;54566;52.022;5.582;2023-04-24T22:39:45;6.47;;;1.77;;
67762;SDS011;54566;52.022;5.582;2023-04-24T22:42:12;9.10;;;2.20;;
67762;SDS011;54566;52.022;5.582;2023-04-24T22:44:39;12.27;;;2.30;;
67762;SDS011;54566;52.022;5.582;2023-04-24T22:47:05;7.47;;;2.13;;
67762;SDS011;54566;52.022;5.582;2023-04-24T22:49:33;6.82;;;2.00;;
67762;SDS011;54566;52.022;5.582;2023-04-24T22:52:03;8.23;;;2.10;;
67762;SDS011;54566;52.022;5.582;2023-04-24T22:56:55;10.38;;;2.33;;
67762;SDS011;54566;52.022;5.582;2023-04-24T22:59:22;10.02;;;2.03;;
67762;SDS011;54566;52.022;5.582;2023-04-24T23:01:48;7.13;;;1.95;;
67762;SDS011;54566;52.022;5.582;2023-04-24T23:04:14;9.70;;;1.83;;
67762;SDS011;54566;52.022;5.582;2023-04-24T23:06:40;10.85;;;2.38;;
67762;SDS011;54566;52.022;5.582;2023-04-24T23:09:06;9.60;;;2.50;;
67762;SDS011;54566;52.022;5.582;2023-04-24T23:11:32;13.10;;;2.20;;
67762;SDS011;54566;52.022;5.582;2023-04-24T23:13:59;16.98;;;3.30;;
67762;SDS011;54566;52.022;5.582;2023-04-24T23:16:25;16.13;;;2.90;;
67762;SDS011;54566;52.022;5.582;2023-04-24T23:18:51;10.60;;;2.33;;
67762;SDS011;54566;52.022;5.582;2023-04-24T23:21:17;12.38;;;2.72;;
67762;SDS011;54566;52.022;5.582;2023-04-24T23:23:43;17.08;;;2.80;;
67762;SDS011;54566;52.022;5.582;2023-04-24T23:26:09;13.90;;;2.75;;
67762;SDS011;54566;52.022;5.582;2023-04-24T23:28:36;16.85;;;2.55;;
67762;SDS011;54566;52.022;5.582;2023-04-24T23:31:04;15.75;;;3.05;;
67762;SDS011;54566;52.022;5.582;2023-04-24T23:33:32;19.67;;;2.90;;
67762;SDS011;54566;52.022;5.582;2023-04-24T23:35:58;14.32;;;2.90;;
67762;SDS011;54566;52.022;5.582;2023-04-24T23:38:24;11.75;;;2.88;;
67762;SDS011;54566;52.022;5.582;2023-04-24T23:40:50;18.77;;;2.38;;
67762;SDS011;54566;52.022;5.582;2023-04-24T23:43:16;15.43;;;2.97;;
67762;SDS011;54566;52.022;5.582;2023-04-24T23:45:45;20.23;;;2.88;;
67762;SDS011;54566;52.022;5.582;2023-04-24T23:48:11;16.83;;;3.60;;
67762;SDS011;54566;52.022;5.582;2023-04-24T23:50:37;16.75;;;2.83;;
67762;SDS011;54566;52.022;5.582;2023-04-24T23:53:03;18.90;;;2.88;;
67762;SDS011;54566;52.022;5.582;2023-04-24T23:55:30;21.17;;;2.67;;
67762;SDS011;54566;52.022;5.582;2023-04-24T23:57:56;18.45;;;4.63;;
